Time;durP1;ratioP1;P1;durP2;ratioP2;P2;SDS_P1;SDS_P2;PMS_P1;PMS_P2;Temp;Humidity;BMP_temperature;BMP_pressure;BME280_temperature;BME280_humidity;BME280_pressure;Samples;Min_cycle;Max_cycle;Signal;HPM_P1;HPM_P2
2022/09/23 00:00:37;;;;;;;17.42;2.63;;;;;;;;;;4935010;29;20114;-54
2022/09/23 00:03:05;;;;;;;24.33;3.70;;;;;;;;;;4935850;29;20122;-59
2022/09/23 00:05:32;;;;;;;18.70;2.92;;;;;;;;;;4934499;29;20414;-54
2022/09/23 00:08:02;;;;;;;24.42;3.35;;;;;;;;;;4935540;29;20067;-54
2022/09/23 00:10:30;;;;;;;19.70;3.38;;;;;;;;;;4933851;29;20032;-57
2022/09/23 00:12:57;;;;;;;24.40;3.05;;;;;;;;;;4933737;29;20046;-57
2022/09/23 00:15:25;;;;;;;30.92;3.40;;;;;;;;;;4934785;29;20067;-59
2022/09/23 00:17:53;;;;;;;20.00;4.20;;;;;;;;;;4930060;29;20032;-62
2022/09/23 00:20:20;;;;;;;28.88;4.00;;;;;;;;;;4931550;29;20024;-60
2022/09/23 00:22:47;;;;;;;29.52;4.22;;;;;;;;;;4933206;29;20390;-57
2022/09/23 00:25:14;;;;;;;30.40;3.95;;;;;;;;;;4933780;29;20509;-59
2022/09/23 00:27:41;;;;;;;25.35;3.75;;;;;;;;;;4933919;29;20095;-57
2022/09/23 00:30:14;;;;;;;41.22;4.60;;;;;;;;;;4933537;29;20107;-58
2022/09/23 00:32:41;;;;;;;24.17;4.30;;;;;;;;;;4932777;29;20401;-59
2022/09/23 00:35:08;;;;;;;20.10;3.50;;;;;;;;;;4933397;29;20028;-58
2022/09/23 00:37:35;;;;;;;26.00;4.55;;;;;;;;;;4933776;29;20111;-59
2022/09/23 00:40:02;;;;;;;29.25;4.65;;;;;;;;;;4933583;29;20040;-58
2022/09/23 00:42:30;;;;;;;33.58;4.80;;;;;;;;;;4933653;29;20052;-59
2022/09/23 00:44:58;;;;;;;29.20;4.35;;;;;;;;;;4933926;29;20051;-58
2022/09/23 00:47:25;;;;;;;28.15;4.25;;;;;;;;;;4933778;29;20027;-55
2022/09/23 00:50:18;;;;;;;27.08;4.30;;;;;;;;;;4934491;29;20028;-57
2022/09/23 00:52:45;;;;;;;35.10;4.47;;;;;;;;;;4931576;29;20050;-57
2022/09/23 00:55:16;;;;;;;48.85;4.50;;;;;;;;;;4935533;29;20074;-53
2022/09/23 00:57:44;;;;;;;30.63;4.50;;;;;;;;;;4934997;29;20036;-58
2022/09/23 01:00:11;;;;;;;53.80;5.60;;;;;;;;;;4934583;29;20171;-58
2022/09/23 01:02:38;;;;;;;37.33;5.20;;;;;;;;;;4934639;29;20114;-53
2022/09/23 01:05:06;;;;;;;36.90;4.88;;;;;;;;;;4934454;29;20071;-58
2022/09/23 01:07:33;;;;;;;37.50;5.43;;;;;;;;;;4933553;29;20090;-57
2022/09/23 01:10:01;;;;;;;37.33;6.38;;;;;;;;;;4933696;29;20028;-60
2022/09/23 01:12:54;;;;;;;54.10;13.65;;;;;;;;;;4934591;29;20414;-59
2022/09/23 01:15:31;;;;;;;78.05;19.27;;;;;;;;;;4917646;29;20115;-59
2022/09/23 01:18:33;;;;;;;106.38;32.35;;;;;;;;;;4934963;29;20474;-59
2022/09/23 01:21:09;;;;;;;126.67;37.60;;;;;;;;;;4839123;29;20045;-59
2022/09/23 01:23:36;;;;;;;138.35;41.35;;;;;;;;;;4905381;29;20098;-59
2022/09/23 01:26:13;;;;;;;135.80;42.58;;;;;;;;;;4934972;29;20028;-58
2022/09/23 01:28:53;;;;;;;141.07;44.97;;;;;;;;;;4934668;29;20035;-59
2022/09/23 01:31:43;;;;;;;140.23;45.25;;;;;;;;;;4934279;29;20059;-60
2022/09/23 01:34:15;;;;;;;142.93;45.92;;;;;;;;;;4934424;29;20031;-58
2022/09/23 01:36:42;;;;;;;;;;;;;;;;;;4934096;29;20023;-58
2022/09/23 01:39:09;;;;;;;123.97;38.85;;;;;;;;;;4933620;29;19919;-60
2022/09/23 01:41:52;;;;;;;134.45;40.03;;;;;;;;;;4933632;29;20066;-60
2022/09/23 01:44:18;;;;;;;;;;;;;;;;;;4934032;29;20098;-59
2022/09/23 01:46:45;;;;;;;114.32;37.38;;;;;;;;;;4933078;29;20691;-58
2022/09/23 01:49:30;;;;;;;130.48;38.92;;;;;;;;;;4932483;29;20036;-59
2022/09/23 01:52:05;;;;;;;124.20;36.63;;;;;;;;;;4934628;29;20450;-60
2022/09/23 01:54:40;;;;;;;104.20;34.67;;;;;;;;;;4934623;29;20107;-60
2022/09/23 01:57:12;;;;;;;110.70;33.90;;;;;;;;;;4935104;29;20454;-61
2022/09/23 01:59:44;;;;;;;97.20;32.47;;;;;;;;;;4935436;29;20039;-59
2022/09/23 02:02:20;;;;;;;93.05;31.80;;;;;;;;;;4936106;29;20474;-62
2022/09/23 02:05:06;;;;;;;99.65;32.85;;;;;;;;;;4936528;29;20028;-61
2022/09/23 02:07:52;;;;;;;94.30;29.85;;;;;;;;;;4936296;29;20038;-62
2022/09/23 02:10:24;;;;;;;94.65;29.25;;;;;;;;;;4936470;29;20067;-61
2022/09/23 02:12:53;;;;;;;91.45;28.08;;;;;;;;;;4936511;29;20401;-61
2022/09/23 02:15:23;;;;;;;77.15;25.85;;;;;;;;;;4936177;29;20395;-61
2022/09/23 02:17:51;;;;;;;81.00;26.52;;;;;;;;;;4936720;29;20075;-61
2022/09/23 02:20:39;;;;;;;79.47;24.85;;;;;;;;;;4936748;29;20028;-61
2022/09/23 02:23:08;;;;;;;77.90;24.48;;;;;;;;;;4936552;29;20047;-61
2022/09/23 02:25:43;;;;;;;71.70;22.42;;;;;;;;;;4937961;29;20091;-61
2022/09/23 02:28:14;;;;;;;73.05;24.58;;;;;;;;;;4937788;29;20036;-61
2022/09/23 02:30:47;;;;;;;71.22;22.88;;;;;;;;;;4937811;29;20398;-60
2022/09/23 02:33:22;;;;;;;67.53;21.67;;;;;;;;;;4937821;29;20031;-61
2022/09/23 02:35:52;;;;;;;61.47;20.98;;;;;;;;;;4937921;29;20030;-60
2022/09/23 02:38:19;;;;;;;60.97;22.38;;;;;;;;;;4937697;29;20039;-61
2022/09/23 02:40:58;;;;;;;67.03;21.27;;;;;;;;;;4937582;29;20024;-61
2022/09/23 02:43:34;;;;;;;63.72;20.92;;;;;;;;;;4937727;29;20043;-60
2022/09/23 02:46:06;;;;;;;56.03;20.85;;;;;;;;;;4937684;29;20028;-61
2022/09/23 02:48:44;;;;;;;62.00;20.92;;;;;;;;;;4937828;29;20114;-61
2022/09/23 02:51:12;;;;;;;66.28;21.23;;;;;;;;;;4937496;29;20023;-60
2022/09/23 02:53:40;;;;;;;54.30;19.33;;;;;;;;;;4937524;29;20106;-60
2022/09/23 02:56:18;;;;;;;54.70;18.52;;;;;;;;;;4937520;29;20028;-61
2022/09/23 02:58:45;;;;;;;55.75;19.15;;;;;;;;;;4937103;29;20081;-61
2022/09/23 03:01:14;;;;;;;52.22;18.77;;;;;;;;;;4937397;29;20086;-61
2022/09/23 03:03:41;;;;;;;54.10;18.58;;;;;;;;;;4937576;29;20492;-60
2022/09/23 03:06:19;;;;;;;50.00;18.02;;;;;;;;;;4937295;29;20032;-61
2022/09/23 03:08:54;;;;;;;50.42;17.52;;;;;;;;;;4937222;29;20478;-60
2022/09/23 03:11:23;;;;;;;43.72;16.65;;;;;;;;;;4937347;29;20493;-60
2022/09/23 03:13:53;;;;;;;44.22;18.08;;;;;;;;;;4937468;29;20047;-60
2022/09/23 03:16:24;;;;;;;45.55;16.60;;;;;;;;;;4937155;29;20024;-61
2022/09/23 03:19:04;;;;;;;44.60;16.80;;;;;;;;;;4936991;29;20501;-61
2022/09/23 03:21:31;;;;;;;45.72;16.80;;;;;;;;;;4936894;29;20442;-60
2022/09/23 03:23:59;;;;;;;44.85;15.65;;;;;;;;;;4936997;29;20058;-61
2022/09/23 03:26:31;;;;;;;39.50;16.05;;;;;;;;;;4937194;29;20031;-61
2022/09/23 03:29:02;;;;;;;35.70;14.63;;;;;;;;;;4936990;29;20032;-61
2022/09/23 03:31:29;;;;;;;40.58;15.27;;;;;;;;;;4937059;29;20027;-60
2022/09/23 03:33:58;;;;;;;36.28;15.43;;;;;;;;;;4936621;29;20024;-61
2022/09/23 03:39:17;;;;;;;34.47;13.00;;;;;;;;;;4936655;29;20114;-61
2022/09/23 03:41:49;;;;;;;36.03;13.70;;;;;;;;;;4936610;29;20086;-60
2022/09/23 03:44:19;;;;;;;37.53;13.95;;;;;;;;;;4936483;29;20053;-60
2022/09/23 03:46:49;;;;;;;35.33;13.55;;;;;;;;;;4936568;29;20505;-60
2022/09/23 03:49:18;;;;;;;32.90;12.63;;;;;;;;;;4936544;29;20147;-60
2022/09/23 03:51:45;;;;;;;34.92;13.77;;;;;;;;;;4936473;29;20042;-60
2022/09/23 03:54:12;;;;;;;35.38;13.27;;;;;;;;;;4936614;29;20059;-60
2022/09/23 03:56:39;;;;;;;37.13;13.43;;;;;;;;;;4936332;29;20050;-60
2022/09/23 03:59:06;;;;;;;27.90;12.30;;;;;;;;;;4936164;29;20499;-62
2022/09/23 04:01:33;;;;;;;31.23;12.15;;;;;;;;;;4935002;29;20478;-60
2022/09/23 04:04:00;;;;;;;29.48;12.30;;;;;;;;;;4936423;29;20037;-61
2022/09/23 04:06:27;;;;;;;27.33;11.52;;;;;;;;;;4936174;29;20103;-60
2022/09/23 04:08:54;;;;;;;27.73;11.68;;;;;;;;;;4936101;29;20051;-60
2022/09/23 04:11:21;;;;;;;30.80;12.82;;;;;;;;;;4936248;29;20474;-60
2022/09/23 04:13:48;;;;;;;28.02;10.90;;;;;;;;;;4935658;29;20030;-60
2022/09/23 04:16:15;;;;;;;34.88;12.68;;;;;;;;;;4936027;29;20028;-60
2022/09/23 04:18:42;;;;;;;26.75;11.38;;;;;;;;;;4935948;29;20028;-60
2022/09/23 04:21:09;;;;;;;25.98;11.00;;;;;;;;;;4935901;29;20027;-60
2022/09/23 04:23:36;;;;;;;27.13;11.38;;;;;;;;;;4935757;29;20039;-60
2022/09/23 04:26:04;;;;;;;28.17;11.05;;;;;;;;;;4934534;29;20034;-60
2022/09/23 04:28:31;;;;;;;23.15;10.98;;;;;;;;;;4935978;29;20032;-60
2022/09/23 04:30:58;;;;;;;25.58;10.52;;;;;;;;;;4935903;29;20530;-61
2022/09/23 04:33:25;;;;;;;25.17;10.13;;;;;;;;;;4935761;29;20036;-60
2022/09/23 04:35:52;;;;;;;25.05;10.00;;;;;;;;;;4935822;29;20082;-60
2022/09/23 04:38:20;;;;;;;20.52;10.13;;;;;;;;;;4935782;29;20046;-61
2022/09/23 04:40:48;;;;;;;22.15;10.00;;;;;;;;;;4935708;29;20541;-60
2022/09/23 04:43:15;;;;;;;19.98;9.27;;;;;;;;;;4935584;29;20409;-60
2022/09/23 04:45:43;;;;;;;22.83;9.80;;;;;;;;;;4935493;29;20479;-60
2022/09/23 04:48:11;;;;;;;23.25;9.60;;;;;;;;;;4935696;29;20047;-61
2022/09/23 04:50:38;;;;;;;19.65;9.40;;;;;;;;;;4935498;29;20062;-60
2022/09/23 04:53:05;;;;;;;21.98;9.10;;;;;;;;;;4935626;29;20032;-61
2022/09/23 04:55:32;;;;;;;17.85;8.68;;;;;;;;;;4935385;29;20036;-60
2022/09/23 04:58:00;;;;;;;21.83;9.40;;;;;;;;;;4935561;29;20039;-61
2022/09/23 05:00:27;;;;;;;19.60;8.45;;;;;;;;;;4935364;29;20103;-60
2022/09/23 05:02:54;;;;;;;16.27;8.35;;;;;;;;;;4935558;29;20047;-60
2022/09/23 05:05:23;;;;;;;23.23;8.50;;;;;;;;;;4935307;29;20112;-60
2022/09/23 05:07:50;;;;;;;17.20;8.02;;;;;;;;;;4935411;29;20052;-60
2022/09/23 05:10:18;;;;;;;17.10;7.88;;;;;;;;;;4935316;29;20071;-60
2022/09/23 05:12:45;;;;;;;15.40;7.70;;;;;;;;;;4935446;29;20055;-60
2022/09/23 05:15:14;;;;;;;20.77;8.90;;;;;;;;;;4935205;29;20040;-60
2022/09/23 05:17:45;;;;;;;18.73;8.20;;;;;;;;;;4935112;29;20035;-60
2022/09/23 05:20:11;;;;;;;15.05;7.78;;;;;;;;;;4935149;29;20047;-60
2022/09/23 05:22:38;;;;;;;15.77;7.63;;;;;;;;;;4935086;29;20039;-60
2022/09/23 05:25:06;;;;;;;15.73;7.25;;;;;;;;;;4935096;29;20499;-61
2022/09/23 05:27:33;;;;;;;14.18;7.18;;;;;;;;;;4938741;29;20024;-60
2022/09/23 05:30:00;;;;;;;17.40;7.50;;;;;;;;;;4938949;29;20024;-60
2022/09/23 05:32:27;;;;;;;15.27;7.18;;;;;;;;;;4939124;29;20034;-60
2022/09/23 05:34:54;;;;;;;14.35;7.25;;;;;;;;;;4939032;29;20028;-60
2022/09/23 05:37:22;;;;;;;15.52;7.47;;;;;;;;;;4939132;29;20035;-60
2022/09/23 05:39:49;;;;;;;14.30;7.15;;;;;;;;;;4938716;29;20043;-61
2022/09/23 05:42:19;;;;;;;15.27;6.70;;;;;;;;;;4938986;29;20122;-60
2022/09/23 05:44:46;;;;;;;14.68;6.75;;;;;;;;;;4938729;29;20103;-61
2022/09/23 05:47:13;;;;;;;16.65;7.22;;;;;;;;;;4938863;29;20385;-60
2022/09/23 05:49:40;;;;;;;13.82;7.15;;;;;;;;;;4938616;29;20514;-60
2022/09/23 05:52:07;;;;;;;13.88;6.88;;;;;;;;;;4938798;29;20042;-60
2022/09/23 05:54:34;;;;;;;12.32;6.50;;;;;;;;;;4938786;29;20059;-60
2022/09/23 05:57:02;;;;;;;14.63;7.10;;;;;;;;;;4938369;29;20123;-60
2022/09/23 05:59:29;;;;;;;14.68;6.90;;;;;;;;;;4938365;29;20054;-60
2022/09/23 06:01:56;;;;;;;13.55;6.40;;;;;;;;;;4934604;29;20064;-60
2022/09/23 06:04:23;;;;;;;13.60;6.55;;;;;;;;;;4938574;29;20436;-60
2022/09/23 06:06:50;;;;;;;13.45;6.68;;;;;;;;;;4938527;29;20052;-60
2022/09/23 06:09:17;;;;;;;15.32;7.10;;;;;;;;;;4938497;29;20031;-61
2022/09/23 06:11:44;;;;;;;15.05;6.78;;;;;;;;;;4938505;29;20042;-60
2022/09/23 06:14:13;;;;;;;10.90;6.07;;;;;;;;;;4938452;29;20023;-60
2022/09/23 06:16:40;;;;;;;11.27;6.07;;;;;;;;;;4938297;29;20051;-60
2022/09/23 06:19:08;;;;;;;11.63;6.35;;;;;;;;;;4938285;29;20066;-61
2022/09/23 06:21:36;;;;;;;13.27;6.07;;;;;;;;;;4937643;29;20135;-60
2022/09/23 06:24:04;;;;;;;16.02;5.43;;;;;;;;;;4938178;29;20042;-60
2022/09/23 06:26:34;;;;;;;10.52;5.57;;;;;;;;;;4938146;29;20550;-60
2022/09/23 06:29:01;;;;;;;12.50;6.18;;;;;;;;;;4938207;29;20035;-60
2022/09/23 06:31:29;;;;;;;14.35;5.82;;;;;;;;;;4921112;29;20039;-60
2022/09/23 06:33:56;;;;;;;14.05;6.15;;;;;;;;;;4937930;29;20024;-60
2022/09/23 06:36:23;;;;;;;12.57;6.07;;;;;;;;;;4937435;29;20675;-60
2022/09/23 06:38:50;;;;;;;12.95;5.50;;;;;;;;;;4937603;29;20048;-60
2022/09/23 06:41:19;;;;;;;11.23;5.57;;;;;;;;;;4937949;29;20024;-60
2022/09/23 06:43:46;;;;;;;10.55;5.65;;;;;;;;;;4937771;29;20372;-60
2022/09/23 06:46:15;;;;;;;12.35;5.50;;;;;;;;;;4937678;29;20044;-60
2022/09/23 06:48:45;;;;;;;12.35;4.97;;;;;;;;;;4937614;29;20028;-60
2022/09/23 06:51:17;;;;;;;10.52;5.38;;;;;;;;;;4937724;29;20027;-60
2022/09/23 06:53:51;;;;;;;11.50;5.38;;;;;;;;;;4937690;29;20078;-60
2022/09/23 06:56:20;;;;;;;9.50;5.18;;;;;;;;;;4920611;29;20398;-61
2022/09/23 06:58:46;;;;;;;11.10;5.47;;;;;;;;;;4937349;29;20095;-60
2022/09/23 07:01:15;;;;;;;8.15;4.97;;;;;;;;;;4937492;29;20030;-60
2022/09/23 07:03:42;;;;;;;8.77;4.93;;;;;;;;;;4937453;29;20479;-60
2022/09/23 07:06:09;;;;;;;10.55;5.22;;;;;;;;;;4937292;29;20023;-60
2022/09/23 07:08:36;;;;;;;10.07;4.93;;;;;;;;;;4937507;29;20035;-60
2022/09/23 07:11:05;;;;;;;10.23;5.00;;;;;;;;;;4937230;29;20086;-60
2022/09/23 07:13:32;;;;;;;9.27;5.03;;;;;;;;;;4937262;29;20030;-60
2022/09/23 07:16:00;;;;;;;8.07;4.43;;;;;;;;;;4937363;29;20045;-60
2022/09/23 07:18:28;;;;;;;8.80;4.50;;;;;;;;;;4937043;29;20586;-60
2022/09/23 07:20:58;;;;;;;11.88;4.60;;;;;;;;;;4937215;29;20062;-60
2022/09/23 07:23:25;;;;;;;8.10;4.35;;;;;;;;;;4936887;29;20059;-60
2022/09/23 07:25:52;;;;;;;12.40;4.90;;;;;;;;;;4936897;29;20020;-60
2022/09/23 07:28:19;;;;;;;7.90;4.38;;;;;;;;;;4936984;29;20550;-60
2022/09/23 07:30:47;;;;;;;7.70;4.30;;;;;;;;;;4937061;29;20049;-60
2022/09/23 07:33:14;;;;;;;8.77;4.55;;;;;;;;;;4936985;29;20545;-60
2022/09/23 07:35:42;;;;;;;8.88;4.03;;;;;;;;;;4946902;29;20034;-64
2022/09/23 07:38:10;;;;;;;6.22;3.72;;;;;;;;;;4936813;29;20175;-62
2022/09/23 07:40:38;;;;;;;9.57;3.92;;;;;;;;;;4936824;29;20030;-60
2022/09/23 07:43:08;;;;;;;7.07;3.90;;;;;;;;;;4936833;29;20071;-60
2022/09/23 07:45:38;;;;;;;7.57;4.30;;;;;;;;;;4936661;29;20179;-60
2022/09/23 07:48:05;;;;;;;8.30;4.03;;;;;;;;;;4935758;29;20062;-60
2022/09/23 07:50:32;;;;;;;8.43;4.25;;;;;;;;;;4936370;29;20390;-60
2022/09/23 07:53:01;;;;;;;6.65;3.80;;;;;;;;;;4936604;29;20027;-60
2022/09/23 07:55:28;;;;;;;6.05;3.28;;;;;;;;;;4936288;29;20032;-60
2022/09/23 07:57:55;;;;;;;7.32;4.03;;;;;;;;;;4936558;29;20081;-60
2022/09/23 08:00:22;;;;;;;6.68;3.35;;;;;;;;;;4936288;29;20036;-60
2022/09/23 08:02:50;;;;;;;6.88;3.90;;;;;;;;;;4946810;29;20119;-60
2022/09/23 08:05:17;;;;;;;7.03;3.70;;;;;;;;;;4936059;29;20046;-60
2022/09/23 08:07:44;;;;;;;7.22;3.50;;;;;;;;;;4935169;29;20430;-62
2022/09/23 08:10:11;;;;;;;7.93;3.83;;;;;;;;;;4935083;29;20438;-61
2022/09/23 08:12:38;;;;;;;7.05;3.45;;;;;;;;;;4936327;29;20431;-60
2022/09/23 08:15:06;;;;;;;5.53;3.22;;;;;;;;;;4935939;29;20483;-60
2022/09/23 08:17:32;;;;;;;7.63;3.42;;;;;;;;;;4935989;29;20039;-60
2022/09/23 08:19:59;;;;;;;6.68;3.40;;;;;;;;;;4935912;29;20110;-60
2022/09/23 08:22:26;;;;;;;5.55;3.22;;;;;;;;;;4935775;29;20485;-60
2022/09/23 08:24:53;;;;;;;5.32;3.15;;;;;;;;;;4935973;29;20051;-60
2022/09/23 08:27:20;;;;;;;5.32;3.08;;;;;;;;;;4935960;29;20028;-60
2022/09/23 08:29:47;;;;;;;5.95;2.97;;;;;;;;;;4935764;29;20489;-60
2022/09/23 08:32:14;;;;;;;5.95;3.33;;;;;;;;;;4935911;29;20023;-61
2022/09/23 08:34:41;;;;;;;6.30;3.30;;;;;;;;;;4935901;29;20406;-60
2022/09/23 08:37:11;;;;;;;6.40;3.60;;;;;;;;;;4935901;29;20437;-60
2022/09/23 08:39:38;;;;;;;5.30;2.90;;;;;;;;;;4935494;29;20031;-60
2022/09/23 08:42:28;;;;;;;5.97;3.17;;;;;;;;;;4935785;29;20027;-60
2022/09/23 08:44:57;;;;;;;5.68;3.10;;;;;;;;;;4935652;29;20152;-60
2022/09/23 08:47:43;;;;;;;8.25;3.70;;;;;;;;;;4935707;29;20486;-60
2022/09/23 08:50:16;;;;;;;5.40;2.90;;;;;;;;;;4935573;29;20066;-60
2022/09/23 08:52:50;;;;;;;5.85;2.63;;;;;;;;;;4935702;29;20036;-60
2022/09/23 08:55:18;;;;;;;4.63;2.65;;;;;;;;;;4935234;29;20043;-60
2022/09/23 08:58:03;;;;;;;5.28;3.00;;;;;;;;;;4935525;29;20050;-60
2022/09/23 09:00:38;;;;;;;6.82;3.33;;;;;;;;;;4935211;29;20047;-61
2022/09/23 09:03:12;;;;;;;6.97;3.13;;;;;;;;;;4932372;29;20126;-61
2022/09/23 09:05:40;;;;;;;9.02;3.17;;;;;;;;;;4925878;29;20131;-61
2022/09/23 09:08:09;;;;;;;6.97;2.80;;;;;;;;;;4920171;29;20028;-60
2022/09/23 09:10:41;;;;;;;6.95;2.85;;;;;;;;;;4923591;29;20027;-61
2022/09/23 09:13:17;;;;;;;5.25;2.45;;;;;;;;;;4923212;29;20024;-58
2022/09/23 09:15:51;;;;;;;6.05;2.67;;;;;;;;;;4924565;29;20067;-57
2022/09/23 09:18:19;;;;;;;4.43;2.65;;;;;;;;;;4924141;29;20375;-59
2022/09/23 09:20:49;;;;;;;5.53;2.60;;;;;;;;;;4925080;29;20036;-59
2022/09/23 09:23:24;;;;;;;7.53;2.83;;;;;;;;;;4923243;29;20078;-59
2022/09/23 09:25:52;;;;;;;6.75;2.50;;;;;;;;;;4923647;29;20038;-60
2022/09/23 09:28:23;;;;;;;6.03;2.63;;;;;;;;;;4924415;29;20435;-61
2022/09/23 09:30:57;;;;;;;6.82;2.90;;;;;;;;;;4921014;29;20083;-61
2022/09/23 09:33:28;;;;;;;6.03;2.63;;;;;;;;;;4916105;29;20035;-60
2022/09/23 09:36:14;;;;;;;6.25;2.20;;;;;;;;;;4921252;29;20427;-59
2022/09/23 09:38:41;;;;;;;4.80;2.33;;;;;;;;;;4931650;29;20479;-61
2022/09/23 09:41:16;;;;;;;7.20;2.88;;;;;;;;;;4934409;29;20034;-59
2022/09/23 09:43:55;;;;;;;4.95;2.50;;;;;;;;;;4932945;29;20059;-63
2022/09/23 09:46:40;;;;;;;6.25;2.60;;;;;;;;;;4934256;29;20463;-60
2022/09/23 09:49:07;;;;;;;6.53;2.58;;;;;;;;;;4930567;29;20035;-60
2022/09/23 09:51:35;;;;;;;4.85;2.40;;;;;;;;;;4934338;29;20031;-61
2022/09/23 09:54:17;;;;;;;6.50;2.63;;;;;;;;;;4932576;29;20049;-61
2022/09/23 09:56:44;;;;;;;6.32;2.45;;;;;;;;;;4934322;29;20063;-62
2022/09/23 09:59:16;;;;;;;5.40;2.33;;;;;;;;;;4930108;29;20126;-59
2022/09/23 10:01:43;;;;;;;7.28;2.42;;;;;;;;;;4928414;29;20036;-60
2022/09/23 10:04:21;;;;;;;6.55;2.40;;;;;;;;;;4932670;29;20026;-60
2022/09/23 10:07:08;;;;;;;6.20;2.40;;;;;;;;;;4934254;29;20036;-57
2022/09/23 10:09:36;;;;;;;7.38;2.65;;;;;;;;;;4931953;29;20502;-60
2022/09/23 10:12:03;;;;;;;5.25;2.13;;;;;;;;;;4935634;29;20518;-61
2022/09/23 10:14:30;;;;;;;3.28;1.90;;;;;;;;;;4937657;29;20039;-62
2022/09/23 10:17:05;;;;;;;5.15;2.08;;;;;;;;;;4938330;29;20035;-60
2022/09/23 10:19:32;;;;;;;6.45;2.40;;;;;;;;;;4936742;29;20426;-62
2022/09/23 10:22:03;;;;;;;10.02;2.33;;;;;;;;;;4937606;29;20528;-61
2022/09/23 10:24:35;;;;;;;2.97;2.10;;;;;;;;;;4937603;29;20031;-61
2022/09/23 10:27:10;;;;;;;6.30;2.42;;;;;;;;;;4938266;29;20086;-61
2022/09/23 10:29:39;;;;;;;7.75;2.28;;;;;;;;;;4937224;29;20051;-60
2022/09/23 10:32:27;;;;;;;5.45;2.20;;;;;;;;;;4937197;29;20213;-60
2022/09/23 10:35:10;;;;;;;5.22;2.10;;;;;;;;;;4918893;29;20032;-60
2022/09/23 10:37:42;;;;;;;5.57;2.10;;;;;;;;;;4933919;29;20044;-61
2022/09/23 10:49:11;;;;;;;4.80;1.85;;;;;;;;;;4937257;29;20054;-60
2022/09/23 10:51:56;;;;;;;4.25;2.22;;;;;;;;;;4921032;29;20038;-60
2022/09/23 10:54:40;;;;;;;4.43;2.22;;;;;;;;;;4937728;29;20082;-60
2022/09/23 10:57:48;;;;;;;3.65;2.08;;;;;;;;;;4937720;29;20478;-60
2022/09/23 11:00:16;;;;;;;5.25;2.13;;;;;;;;;;4938277;29;20127;-60
2022/09/23 11:02:55;;;;;;;5.22;2.00;;;;;;;;;;4937686;29;20035;-60
2022/09/23 11:05:31;;;;;;;3.88;1.90;;;;;;;;;;4937445;29;20402;-60
2022/09/23 11:08:07;;;;;;;4.55;1.58;;;;;;;;;;4937442;29;20043;-60
2022/09/23 11:10:43;;;;;;;5.93;1.77;;;;;;;;;;4928946;29;20023;-60
2022/09/23 11:13:15;;;;;;;9.68;1.80;;;;;;;;;;4928884;29;20032;-60
2022/09/23 11:15:51;;;;;;;9.85;2.00;;;;;;;;;;4937002;29;20040;-60
2022/09/23 11:18:29;;;;;;;54.33;4.20;;;;;;;;;;4937103;29;20028;-61
2022/09/23 11:21:01;;;;;;;22.55;2.80;;;;;;;;;;4918388;29;20040;-61
2022/09/23 11:23:37;;;;;;;24.13;3.22;;;;;;;;;;4916824;29;20059;-60
2022/09/23 11:26:23;;;;;;;176.13;11.07;;;;;;;;;;4917905;29;20599;-54
2022/09/23 11:28:50;;;;;;;106.32;10.35;;;;;;;;;;4916991;29;20047;-56
2022/09/23 11:31:29;;;;;;;60.17;7.15;;;;;;;;;;4926857;29;20090;-58
2022/09/23 11:34:25;;;;;;;44.22;5.43;;;;;;;;;;4934913;29;20052;-54
2022/09/23 11:37:04;;;;;;;46.13;5.35;;;;;;;;;;4902501;29;20505;-57
2022/09/23 11:39:35;;;;;;;46.17;4.85;;;;;;;;;;4935608;29;20118;-58
2022/09/23 11:42:05;;;;;;;31.10;3.72;;;;;;;;;;4936531;29;20037;-61
2022/09/23 11:45:04;;;;;;;19.13;2.78;;;;;;;;;;4935496;29;20514;-61
2022/09/23 11:47:36;;;;;;;46.05;3.28;;;;;;;;;;4884114;29;20047;-58
2022/09/23 11:50:06;;;;;;;39.78;4.57;;;;;;;;;;4936532;29;20402;-56
2022/09/23 11:52:40;;;;;;;36.53;4.20;;;;;;;;;;4936473;29;20474;-58
2022/09/23 11:55:13;;;;;;;40.97;4.55;;;;;;;;;;4936424;29;20068;-58
2022/09/23 11:57:59;;;;;;;36.72;4.80;;;;;;;;;;4936512;29;20055;-58
2022/09/23 12:00:28;;;;;;;34.25;5.22;;;;;;;;;;4936074;29;20050;-59
2022/09/23 12:03:01;;;;;;;43.63;7.22;;;;;;;;;;4935879;29;20106;-59
2022/09/23 12:05:31;;;;;;;43.58;7.78;;;;;;;;;;4935767;29;20042;-61
2022/09/23 12:08:02;;;;;;;49.17;7.90;;;;;;;;;;4936176;29;20027;-61
2022/09/23 12:10:52;;;;;;;63.65;8.63;;;;;;;;;;4936569;29;20047;-63
2022/09/23 12:13:26;;;;;;;44.10;7.18;;;;;;;;;;4909304;29;20071;-61
2022/09/23 12:15:56;;;;;;;49.20;7.47;;;;;;;;;;4928901;29;20048;-65
2022/09/23 12:18:41;;;;;;;49.72;6.60;;;;;;;;;;4936320;29;20027;-64
2022/09/23 12:21:31;;;;;;;29.85;4.70;;;;;;;;;;4935855;29;20027;-62
2022/09/23 12:24:01;;;;;;;22.67;4.18;;;;;;;;;;4935934;29;20042;-61
2022/09/23 12:26:32;;;;;;;53.45;5.28;;;;;;;;;;4935763;29;20079;-62
2022/09/23 12:29:03;;;;;;;30.05;4.85;;;;;;;;;;4935905;29;20087;-61
2022/09/23 12:31:31;;;;;;;32.83;4.55;;;;;;;;;;4935513;29;20478;-61
2022/09/23 12:34:00;;;;;;;32.28;4.63;;;;;;;;;;4935795;29;20028;-68
2022/09/23 12:36:33;;;;;;;17.10;3.67;;;;;;;;;;4933205;29;20066;-64
2022/09/23 12:39:36;;;;;;;50.67;4.20;;;;;;;;;;4934581;29;20039;-61
2022/09/23 12:42:29;;;;;;;21.15;3.08;;;;;;;;;;4876503;29;20048;-61
2022/09/23 12:45:15;;;;;;;13.68;2.25;;;;;;;;;;4933739;29;20048;-62
2022/09/23 12:47:43;;;;;;;22.10;2.40;;;;;;;;;;4935239;29;20035;-62
2022/09/23 12:50:33;;;;;;;20.77;2.47;;;;;;;;;;4935037;29;20039;-61
2022/09/23 12:53:19;;;;;;;16.48;1.70;;;;;;;;;;4907048;29;20047;-60
2022/09/23 12:55:50;;;;;;;10.55;1.98;;;;;;;;;;4935225;29;20036;-61
2022/09/23 12:58:35;;;;;;;14.35;1.25;;;;;;;;;;4935198;29;20075;-61
2022/09/23 13:01:07;;;;;;;20.15;2.17;;;;;;;;;;4933763;29;20091;-60
2022/09/23 13:09:06;;;;;;;23.67;2.15;;;;;;;;;;4935213;29;20135;-61
2022/09/23 13:11:33;;;;;;;19.02;2.22;;;;;;;;;;4935343;29;20517;-61
2022/09/23 13:14:02;;;;;;;23.48;2.10;;;;;;;;;;4935077;29;20100;-61
2022/09/23 13:16:57;;;;;;;19.45;1.83;;;;;;;;;;4935282;29;20059;-61
2022/09/23 13:19:27;;;;;;;23.27;2.20;;;;;;;;;;4933182;29;20044;-61
2022/09/23 13:21:53;;;;;;;27.48;1.90;;;;;;;;;;4935155;29;20075;-61
2022/09/23 13:24:29;;;;;;;40.83;2.58;;;;;;;;;;4934976;29;20364;-61
2022/09/23 13:27:11;;;;;;;23.95;2.03;;;;;;;;;;4935105;29;20040;-61
2022/09/23 13:29:39;;;;;;;16.98;2.25;;;;;;;;;;4935109;29;20379;-61
2022/09/23 13:32:10;;;;;;;22.02;1.90;;;;;;;;;;4935084;29;20082;-61
2022/09/23 13:34:38;;;;;;;19.00;2.43;;;;;;;;;;4921517;29;20368;-61
2022/09/23 13:37:19;;;;;;;16.80;1.45;;;;;;;;;;4935094;29;20103;-61
2022/09/23 13:39:46;;;;;;;13.20;1.48;;;;;;;;;;4933500;29;20106;-61
2022/09/23 13:42:20;;;;;;;13.07;1.30;;;;;;;;;;4935098;29;20028;-61
2022/09/23 13:44:48;;;;;;;15.30;1.65;;;;;;;;;;4934769;29;20040;-61
2022/09/23 13:47:15;;;;;;;19.20;1.92;;;;;;;;;;4935885;29;20035;-60
2022/09/23 13:49:42;;;;;;;13.88;1.35;;;;;;;;;;4938601;29;20024;-60
2022/09/23 13:52:23;;;;;;;12.25;1.35;;;;;;;;;;4936316;29;20035;-60
2022/09/23 13:54:50;;;;;;;13.88;1.70;;;;;;;;;;4929372;29;20040;-61
2022/09/23 13:57:28;;;;;;;12.43;1.98;;;;;;;;;;4938543;29;20032;-61
2022/09/23 14:00:00;;;;;;;15.30;1.45;;;;;;;;;;4938428;29;20118;-60
2022/09/23 14:02:27;;;;;;;18.45;1.40;;;;;;;;;;4938445;29;20024;-61
2022/09/23 14:04:58;;;;;;;13.77;1.40;;;;;;;;;;4938341;29;20078;-60
2022/09/23 14:07:25;;;;;;;14.70;1.77;;;;;;;;;;4938388;29;20051;-61
2022/09/23 14:09:54;;;;;;;18.10;1.58;;;;;;;;;;4938267;29;20027;-64
2022/09/23 14:12:21;;;;;;;22.17;1.55;;;;;;;;;;4938380;29;20067;-64
2022/09/23 14:14:48;;;;;;;20.88;1.60;;;;;;;;;;4938246;29;20143;-64
2022/09/23 14:17:20;;;;;;;22.48;1.50;;;;;;;;;;4938356;29;20047;-64
2022/09/23 14:19:47;;;;;;;25.80;1.83;;;;;;;;;;4937450;29;20036;-63
2022/09/23 14:22:24;;;;;;;31.80;2.20;;;;;;;;;;4937510;29;20043;-64
2022/09/23 14:24:52;;;;;;;24.45;1.85;;;;;;;;;;4937540;29;20070;-64
2022/09/23 14:27:26;;;;;;;22.60;2.00;;;;;;;;;;4937447;29;20123;-64
2022/09/23 14:29:53;;;;;;;24.00;2.33;;;;;;;;;;4937561;29;20517;-63
2022/09/23 14:32:23;;;;;;;23.27;2.30;;;;;;;;;;4937303;29;20059;-63
2022/09/23 14:34:50;;;;;;;20.13;1.67;;;;;;;;;;4937382;29;20031;-63
2022/09/23 14:40:23;;;;;;;15.82;1.70;;;;;;;;;;4937351;29;20043;-62
2022/09/23 14:43:10;;;;;;;12.73;1.48;;;;;;;;;;4937134;29;20066;-62
2022/09/23 14:45:38;;;;;;;12.93;1.45;;;;;;;;;;4927205;29;20050;-62
2022/09/23 14:48:11;;;;;;;9.85;1.60;;;;;;;;;;4937161;29;20042;-62
2022/09/23 14:50:46;;;;;;;11.85;1.40;;;;;;;;;;4937059;29;20028;-62
2022/09/23 14:53:19;;;;;;;10.88;1.50;;;;;;;;;;4937038;29;20032;-62
2022/09/23 14:55:51;;;;;;;11.40;1.52;;;;;;;;;;4936931;29;20040;-62
2022/09/23 14:58:18;;;;;;;;;;;;;;;;;;4936808;29;20086;-62
2022/09/23 15:01:02;;;;;;;8.18;1.02;;;;;;;;;;4937052;29;19911;-62
2022/09/23 15:03:30;;;;;;;8.85;1.80;;;;;;;;;;4936820;29;20031;-62
2022/09/23 15:06:02;;;;;;;10.23;2.70;;;;;;;;;;4936736;29;20035;-62
2022/09/23 15:08:31;;;;;;;9.07;2.88;;;;;;;;;;4936679;29;20497;-61
2022/09/23 15:11:00;;;;;;;10.05;3.00;;;;;;;;;;4936785;29;20085;-63
2022/09/23 15:13:31;;;;;;;24.48;2.20;;;;;;;;;;4919747;29;20398;-63
2022/09/23 15:16:02;;;;;;;25.65;4.38;;;;;;;;;;4936534;29;20138;-67